createdAt,value
2022-08-10T00:00:57.055Z,4.35
2022-08-10T00:01:57.083Z,4.60
2022-08-10T00:06:57.083Z,4.47
2022-08-10T00:07:57.090Z,4.26
2022-08-10T00:08:57.079Z,4.34
2022-08-10T00:09:57.112Z,4.44
2022-08-10T00:10:57.096Z,4.62
2022-08-10T00:11:57.085Z,4.28
2022-08-10T00:12:57.348Z,4.18
2022-08-10T00:15:57.095Z,3.80
2022-08-10T00:16:57.106Z,4.33
2022-08-10T00:17:57.124Z,4.46
2022-08-10T00:18:57.103Z,4.20
2022-08-10T00:20:03.455Z,4.22
2022-08-10T00:20:57.136Z,4.44
2022-08-10T00:21:58.500Z,4.77
2022-08-10T00:25:57.164Z,4.24
2022-08-10T00:27:52.660Z,4.67
2022-08-10T00:28:03.561Z,5.17
2022-08-10T00:29:57.122Z,4.11
2022-08-10T00:30:57.120Z,4.80
2022-08-10T00:31:59.255Z,4.17
2022-08-10T00:33:57.153Z,4.04
2022-08-10T00:36:57.169Z,4.57
2022-08-10T00:37:58.053Z,4.30
2022-08-10T00:38:57.155Z,4.94
2022-08-10T00:39:57.206Z,4.66
2022-08-10T00:40:57.157Z,4.63
2022-08-10T00:42:06.700Z,4.96
2022-08-10T00:42:57.180Z,5.12
2022-08-10T00:43:57.181Z,4.66
2022-08-10T00:46:57.194Z,4.46
2022-08-10T00:47:57.188Z,4.28
2022-08-10T00:49:57.191Z,4.00
2022-08-10T00:50:57.187Z,4.50
2022-08-10T00:52:57.185Z,3.87
2022-08-10T00:53:57.182Z,3.78
2022-08-10T00:54:57.195Z,3.97
2022-08-10T00:57:15.485Z,4.73
2022-08-10T00:57:16.970Z,4.66
2022-08-10T00:57:57.217Z,4.91
2022-08-10T00:58:58.696Z,4.13
2022-08-10T00:59:59.114Z,4.31
2022-08-10T01:02:11.131Z,4.41
2022-08-10T01:02:57.277Z,4.50
2022-08-10T01:04:40.183Z,3.97
2022-08-10T01:05:57.264Z,4.71
2022-08-10T01:08:57.232Z,4.05
2022-08-10T01:09:57.529Z,4.41
2022-08-10T01:10:57.252Z,4.14
2022-08-10T01:12:38.457Z,4.10
2022-08-10T01:12:57.251Z,4.28
2022-08-10T01:13:57.236Z,3.94
2022-08-10T01:14:57.238Z,4.18
2022-08-10T01:16:57.262Z,4.18
2022-08-10T01:17:57.247Z,4.15
2022-08-10T01:19:57.270Z,4.38
2022-08-10T01:20:57.257Z,3.89
2022-08-10T01:21:57.396Z,4.55
2022-08-10T01:23:57.322Z,4.38
2022-08-10T01:26:57.336Z,4.75
2022-08-10T01:27:57.294Z,4.82
2022-08-10T01:28:57.304Z,4.53
2022-08-10T01:29:57.286Z,3.90
2022-08-10T01:31:57.298Z,4.58
2022-08-10T01:32:57.285Z,4.36
2022-08-10T01:33:58.418Z,4.17
2022-08-10T01:34:57.307Z,3.93
2022-08-10T01:36:57.324Z,4.41
2022-08-10T01:37:57.313Z,4.63
2022-08-10T01:38:57.306Z,4.18
2022-08-10T01:39:57.303Z,4.28
2022-08-10T01:40:57.333Z,4.42
2022-08-10T01:41:57.298Z,4.37
2022-08-10T01:42:59.812Z,4.73
2022-08-10T01:44:57.320Z,4.55
2022-08-10T01:45:57.325Z,4.50
2022-08-10T01:46:57.487Z,4.47
2022-08-10T01:47:57.348Z,4.36
2022-08-10T01:48:57.341Z,4.17
2022-08-10T01:49:57.339Z,4.05
2022-08-10T01:51:00.091Z,4.74
2022-08-10T01:52:00.683Z,4.75
2022-08-10T01:53:57.340Z,4.41
2022-08-10T01:56:57.366Z,4.82
2022-08-10T01:58:57.373Z,5.00
2022-08-10T02:00:01.864Z,4.79
2022-08-10T02:04:04.462Z,4.39
2022-08-10T02:04:58.812Z,4.33
2022-08-10T02:05:57.379Z,4.38
2022-08-10T02:06:57.402Z,5.10
2022-08-10T02:07:57.403Z,4.14
2022-08-10T02:09:57.404Z,4.46
2022-08-10T02:10:57.383Z,4.05
2022-08-10T02:12:07.251Z,4.49
2022-08-10T02:12:59.152Z,4.70
2022-08-10T02:13:57.403Z,4.23
2022-08-10T02:14:57.411Z,4.41
2022-08-10T02:16:01.290Z,4.71
2022-08-10T02:18:01.639Z,4.61
2022-08-10T02:18:57.398Z,4.63
2022-08-10T02:19:57.406Z,4.23
2022-08-10T02:20:57.409Z,4.32
2022-08-10T02:22:35.319Z,4.52
2022-08-10T02:22:57.442Z,4.81
2022-08-10T02:24:00.346Z,4.47
2022-08-10T02:24:57.428Z,4.50
2022-08-10T02:26:59.915Z,4.94
2022-08-10T02:28:57.477Z,4.57
2022-08-10T02:29:57.453Z,5.10
2022-08-10T02:30:57.614Z,4.67
2022-08-10T02:31:57.461Z,4.76
2022-08-10T02:32:57.451Z,4.75
2022-08-10T02:35:57.448Z,4.78
2022-08-10T02:36:57.459Z,4.37
2022-08-10T02:37:57.458Z,4.32
2022-08-10T02:39:00.482Z,4.83
2022-08-10T02:39:57.460Z,4.21
2022-08-10T02:45:22.067Z,4.08
2022-08-10T02:45:23.254Z,4.60
2022-08-10T02:46:57.481Z,4.75
2022-08-10T02:47:57.486Z,4.62
2022-08-10T02:48:57.492Z,4.41
2022-08-10T02:50:57.501Z,4.29
2022-08-10T02:52:06.234Z,4.52
2022-08-10T02:52:57.507Z,4.74
2022-08-10T02:53:57.518Z,4.39
2022-08-10T02:54:57.492Z,4.86
2022-08-10T02:55:57.493Z,4.60
2022-08-10T02:56:57.506Z,4.29
2022-08-10T02:58:13.414Z,4.53
2022-08-10T02:58:57.508Z,4.78
2022-08-10T02:59:57.502Z,5.13
2022-08-10T03:00:57.579Z,4.85
2022-08-10T03:01:57.524Z,4.57
2022-08-10T03:02:57.535Z,4.46
2022-08-10T03:03:57.565Z,4.56
2022-08-10T03:04:58.458Z,4.84
2022-08-10T03:06:57.548Z,5.09
2022-08-10T03:07:57.557Z,5.07
2022-08-10T03:09:57.560Z,4.87
2022-08-10T03:10:57.556Z,4.43
2022-08-10T03:12:36.227Z,4.73
2022-08-10T03:12:57.590Z,5.12
2022-08-10T03:13:59.960Z,4.97
2022-08-10T03:14:57.579Z,4.62
2022-08-10T03:15:57.569Z,5.11
2022-08-10T03:16:57.599Z,4.79
2022-08-10T03:17:58.920Z,5.49
2022-08-10T03:18:57.580Z,4.46
2022-08-10T03:20:34.807Z,4.98
2022-08-10T03:20:57.573Z,4.99
2022-08-10T03:21:57.591Z,4.76
2022-08-10T03:22:57.579Z,4.46
2022-08-10T03:24:57.598Z,5.33
2022-08-10T03:26:59.591Z,4.77
2022-08-10T03:27:57.592Z,4.79
2022-08-10T03:28:57.612Z,4.89
2022-08-10T03:30:28.729Z,4.86
2022-08-10T03:30:57.610Z,5.04
2022-08-10T03:31:57.602Z,5.47
2022-08-10T03:32:57.636Z,5.35
2022-08-10T03:33:57.624Z,4.91
2022-08-10T03:34:57.602Z,4.06
2022-08-10T03:36:41.332Z,4.68
2022-08-10T03:36:57.630Z,5.10
2022-08-10T03:38:00.185Z,5.52
2022-08-10T03:38:57.624Z,4.91
2022-08-10T03:39:57.635Z,4.78
2022-08-10T03:42:57.649Z,4.56
2022-08-10T03:43:57.627Z,5.42
2022-08-10T03:44:57.642Z,5.72
2022-08-10T03:45:57.644Z,4.92
2022-08-10T03:48:57.646Z,4.90
2022-08-10T03:49:57.660Z,4.64
2022-08-10T03:50:57.662Z,4.95
2022-08-10T03:51:57.681Z,5.32
2022-08-10T03:54:02.992Z,5.35
2022-08-10T03:56:29.666Z,5.56
2022-08-10T03:57:57.684Z,4.55
2022-08-10T03:59:57.666Z,4.67
2022-08-10T04:00:57.771Z,5.09
2022-08-10T04:02:45.244Z,4.85
2022-08-10T04:04:57.702Z,5.30
2022-08-10T04:05:57.701Z,4.91
2022-08-10T04:06:57.687Z,4.94
2022-08-10T04:07:57.694Z,5.51
2022-08-10T04:08:57.704Z,5.88
2022-08-10T04:15:57.719Z,5.48
2022-08-10T04:16:57.711Z,5.04
2022-08-10T04:18:04.836Z,5.15
2022-08-10T04:19:57.742Z,5.58
2022-08-10T04:20:57.739Z,5.43
2022-08-10T04:21:57.741Z,5.42
2022-08-10T04:22:57.719Z,4.88
2022-08-10T04:26:57.758Z,5.65
2022-08-10T04:27:57.753Z,5.56
2022-08-10T04:28:57.750Z,5.17
2022-08-10T04:30:57.753Z,5.97
2022-08-10T04:31:57.760Z,5.72
2022-08-10T04:33:57.768Z,5.66
2022-08-10T04:34:57.796Z,5.64
2022-08-10T04:35:57.764Z,5.33
2022-08-10T04:40:59.999Z,5.71
2022-08-10T04:41:57.778Z,6.24
2022-08-10T04:44:57.790Z,5.34
2022-08-10T04:46:59.209Z,6.06
2022-08-10T04:48:03.126Z,6.01
2022-08-10T04:49:01.524Z,5.81
2022-08-10T04:49:57.809Z,6.25
2022-08-10T04:50:57.815Z,6.01
2022-08-10T04:51:57.813Z,5.36
2022-08-10T04:52:57.802Z,5.34
2022-08-10T04:54:05.535Z,5.92
2022-08-10T04:55:57.839Z,6.38
2022-08-10T04:56:57.810Z,5.87
2022-08-10T04:57:57.807Z,5.67
2022-08-10T04:59:57.833Z,5.99
2022-08-10T05:00:57.886Z,5.75
2022-08-10T05:02:22.339Z,6.15
2022-08-10T05:02:57.849Z,5.93
2022-08-10T05:04:36.985Z,5.69
2022-08-10T05:04:57.826Z,5.70
2022-08-10T05:05:57.837Z,6.68
2022-08-10T05:06:57.863Z,5.52
2022-08-10T05:07:57.859Z,5.73
2022-08-10T05:10:03.908Z,6.05
2022-08-10T05:10:57.868Z,5.52
2022-08-10T05:11:57.836Z,5.86
2022-08-10T05:12:57.843Z,6.22
2022-08-10T05:13:57.870Z,5.66
2022-08-10T05:14:57.860Z,6.01
2022-08-10T05:15:57.874Z,5.61
2022-08-10T05:16:57.881Z,5.61
2022-08-10T05:18:06.905Z,5.13
2022-08-10T05:18:57.879Z,5.86
2022-08-10T05:20:02.383Z,5.71
2022-08-10T05:20:57.880Z,5.77
2022-08-10T05:22:04.617Z,5.82
2022-08-10T05:22:57.903Z,5.78
2022-08-10T05:23:57.891Z,5.83
2022-08-10T05:24:57.907Z,5.85
2022-08-10T05:25:57.932Z,5.54
2022-08-10T05:27:09.532Z,5.56
2022-08-10T05:27:57.892Z,5.67
2022-08-10T05:28:57.886Z,5.26
2022-08-10T05:30:01.699Z,5.73
2022-08-10T05:30:57.916Z,5.61
2022-08-10T05:31:57.915Z,6.19
2022-08-10T05:33:00.760Z,5.91
2022-08-10T05:33:58.093Z,6.49
2022-08-10T05:34:57.951Z,5.53
2022-08-10T05:35:58.377Z,5.85
2022-08-10T05:36:58.039Z,6.23
2022-08-10T05:38:11.542Z,5.61
2022-08-10T05:38:59.158Z,5.47
2022-08-10T05:39:58.026Z,5.53
2022-08-10T05:40:57.971Z,5.67
2022-08-10T05:41:57.977Z,5.41
2022-08-10T05:42:57.941Z,5.57
2022-08-10T05:43:57.997Z,5.51
2022-08-10T05:44:57.947Z,5.61
2022-08-10T05:46:19.330Z,5.53
2022-08-10T05:46:57.961Z,6.13
2022-08-10T05:48:57.298Z,6.50
2022-08-10T05:49:00.695Z,6.23
2022-08-10T05:50:57.952Z,5.28
2022-08-10T05:51:57.969Z,6.02
2022-08-10T05:54:01.480Z,5.06
2022-08-10T05:55:02.936Z,5.94
2022-08-10T05:55:57.983Z,5.91
2022-08-10T05:56:58.446Z,6.03
2022-08-10T05:57:57.975Z,5.39
2022-08-10T05:58:57.993Z,6.07
2022-08-10T06:00:32.952Z,5.86
2022-08-10T06:00:58.024Z,5.35
2022-08-10T06:02:32.488Z,5.47
2022-08-10T06:02:58.010Z,6.06
2022-08-10T06:03:57.987Z,6.33
2022-08-10T06:04:58.000Z,6.20
2022-08-10T06:05:58.008Z,6.60
2022-08-10T06:06:58.032Z,5.90
2022-08-10T06:07:58.031Z,4.77
2022-08-10T06:08:58.000Z,5.84
2022-08-10T06:09:59.051Z,6.32
2022-08-10T06:12:24.186Z,6.05
2022-08-10T06:12:27.477Z,5.66
2022-08-10T06:12:58.266Z,5.31
2022-08-10T06:14:00.058Z,6.06
2022-08-10T06:15:00.118Z,5.45
2022-08-10T06:15:58.029Z,5.64
2022-08-10T06:16:58.036Z,6.04
2022-08-10T06:18:01.987Z,5.74
2022-08-10T06:18:58.036Z,5.26
2022-08-10T06:19:58.053Z,5.51
2022-08-10T06:20:58.052Z,5.69
2022-08-10T06:22:01.216Z,5.37
2022-08-10T06:22:58.035Z,5.73
2022-08-10T06:23:58.029Z,5.36
2022-08-10T06:26:12.213Z,5.65
2022-08-10T06:26:58.039Z,5.87
2022-08-10T06:27:58.040Z,6.00
2022-08-10T06:29:02.816Z,4.22
2022-08-10T06:29:58.048Z,5.87
2022-08-10T06:30:58.046Z,5.41
2022-08-10T06:32:00.717Z,5.00
2022-08-10T06:32:58.085Z,5.39
2022-08-10T06:33:58.083Z,5.18
2022-08-10T06:34:58.091Z,5.51
2022-08-10T06:35:58.093Z,4.81
2022-08-10T06:36:58.102Z,4.90
2022-08-10T06:37:58.067Z,4.96
2022-08-10T06:39:16.773Z,5.51
2022-08-10T06:39:58.108Z,6.12
2022-08-10T06:40:58.077Z,5.19
2022-08-10T06:42:16.262Z,5.39
2022-08-10T06:42:58.086Z,5.52
2022-08-10T06:43:58.114Z,5.36
2022-08-10T06:44:58.127Z,6.35
2022-08-10T06:46:07.832Z,5.44
2022-08-10T06:46:58.095Z,5.32
2022-08-10T06:47:58.105Z,5.17
2022-08-10T06:49:59.837Z,5.83
2022-08-10T06:50:59.193Z,5.01
2022-08-10T06:51:58.110Z,5.11
2022-08-10T06:52:58.125Z,5.87
2022-08-10T06:53:58.118Z,5.64
2022-08-10T06:54:58.153Z,5.57
2022-08-10T06:55:58.134Z,5.75
2022-08-10T06:57:17.286Z,4.94
2022-08-10T06:57:59.923Z,5.33
2022-08-10T06:58:58.136Z,5.08
2022-08-10T06:59:58.144Z,5.77
2022-08-10T07:00:58.310Z,5.63
2022-08-10T07:01:58.150Z,5.21
2022-08-10T07:02:58.150Z,5.58
2022-08-10T07:03:58.167Z,5.85
2022-08-10T07:05:58.138Z,5.41
2022-08-10T07:06:58.153Z,5.50
2022-08-10T07:07:58.170Z,5.51
2022-08-10T07:09:00.878Z,5.49
2022-08-10T07:09:58.171Z,5.32
2022-08-10T07:10:58.171Z,5.16
2022-08-10T07:11:58.169Z,5.47
2022-08-10T07:12:58.203Z,5.41
2022-08-10T07:14:17.199Z,5.45
2022-08-10T07:14:58.201Z,5.75
2022-08-10T07:16:00.547Z,5.51
2022-08-10T07:16:58.194Z,5.40
2022-08-10T07:18:58.205Z,5.52
2022-08-10T07:19:58.194Z,5.87
2022-08-10T07:20:58.208Z,5.21
2022-08-10T07:21:58.220Z,5.45
2022-08-10T07:23:22.869Z,5.91
2022-08-10T07:24:00.517Z,5.55
2022-08-10T07:24:58.210Z,5.87
2022-08-10T07:25:58.191Z,5.04
2022-08-10T07:26:58.197Z,5.98
2022-08-10T07:27:59.574Z,4.90
2022-08-10T07:28:58.206Z,5.22
2022-08-10T07:29:58.212Z,5.69
2022-08-10T07:30:58.298Z,5.55
2022-08-10T07:31:58.223Z,5.89
2022-08-10T07:32:58.205Z,5.61
2022-08-10T07:33:58.238Z,5.38
2022-08-10T07:34:58.245Z,6.14
2022-08-10T07:35:58.226Z,5.29
2022-08-10T07:36:58.222Z,5.25
2022-08-10T07:37:58.242Z,5.31
2022-08-10T07:38:58.227Z,4.95
2022-08-10T07:40:03.322Z,5.68
2022-08-10T07:40:58.262Z,4.92
2022-08-10T07:41:58.250Z,5.36
2022-08-10T07:42:58.257Z,5.05
2022-08-10T07:43:58.243Z,4.84
2022-08-10T07:44:58.247Z,5.77
2022-08-10T07:46:01.024Z,5.55
2022-08-10T07:46:58.254Z,4.71
2022-08-10T07:47:59.213Z,4.99
2022-08-10T07:48:58.275Z,4.91
2022-08-10T07:49:58.279Z,5.44
2022-08-10T07:50:58.262Z,4.83
2022-08-10T07:51:58.264Z,5.20
2022-08-10T07:52:58.277Z,5.44
2022-08-10T07:53:58.303Z,6.00
2022-08-10T07:54:58.272Z,5.37
2022-08-10T07:56:02.161Z,5.43
2022-08-10T07:56:58.273Z,5.37
2022-08-10T07:57:58.295Z,5.72
2022-08-10T07:58:58.287Z,5.40
2022-08-10T07:59:58.310Z,6.01
2022-08-10T08:00:58.293Z,5.31
2022-08-10T08:01:58.397Z,5.28
2022-08-10T08:02:58.302Z,5.50
2022-08-10T08:04:05.769Z,4.78
2022-08-10T08:04:58.307Z,5.45
2022-08-10T08:06:05.314Z,5.37
2022-08-10T08:06:58.301Z,4.76
2022-08-10T08:07:58.295Z,5.49
2022-08-10T08:08:58.304Z,5.03
2022-08-10T08:10:01.137Z,5.68
2022-08-10T08:10:58.352Z,5.38
2022-08-10T08:11:59.634Z,5.77
2022-08-10T08:12:58.329Z,5.73
2022-08-10T08:13:58.312Z,5.32
2022-08-10T08:14:58.346Z,5.02
2022-08-10T08:16:20.671Z,5.05
2022-08-10T08:16:58.332Z,5.12
2022-08-10T08:17:59.877Z,4.68
2022-08-10T08:19:55.498Z,5.51
2022-08-10T08:19:58.384Z,5.46
2022-08-10T08:20:58.387Z,4.84
2022-08-10T08:24:05.726Z,4.88
2022-08-10T08:24:05.848Z,4.92
2022-08-10T08:24:06.201Z,4.63
2022-08-10T08:24:58.368Z,5.14
2022-08-10T08:25:58.389Z,4.73
2022-08-10T08:26:58.392Z,4.74
2022-08-10T08:27:58.395Z,5.48
2022-08-10T08:28:58.398Z,4.69
2022-08-10T08:29:58.412Z,4.46
2022-08-10T08:30:58.413Z,4.05
2022-08-10T08:32:02.403Z,4.54
2022-08-10T08:32:58.393Z,4.32
2022-08-10T08:33:58.381Z,4.80
2022-08-10T08:34:58.397Z,4.50
2022-08-10T08:35:58.396Z,4.77
2022-08-10T08:38:29.875Z,5.28
2022-08-10T08:38:58.412Z,5.09
2022-08-10T08:39:58.422Z,5.64
2022-08-10T08:40:58.410Z,5.03
2022-08-10T08:41:58.392Z,4.32
2022-08-10T08:42:58.413Z,4.45
2022-08-10T08:43:58.445Z,4.23
2022-08-10T08:46:01.985Z,4.37
2022-08-10T08:46:59.523Z,4.30
2022-08-10T08:48:05.307Z,4.61
2022-08-10T08:48:58.449Z,4.91
2022-08-10T08:50:08.055Z,4.18
2022-08-10T08:50:59.601Z,4.68
2022-08-10T08:52:17.519Z,4.16
2022-08-10T08:52:58.430Z,4.66
2022-08-10T08:54:02.526Z,4.87
2022-08-10T08:54:58.441Z,4.78
2022-08-10T08:56:05.787Z,4.62
2022-08-10T08:56:58.443Z,4.91
2022-08-10T08:57:58.449Z,4.67
2022-08-10T08:58:58.459Z,4.60
2022-08-10T09:00:01.400Z,5.00
2022-08-10T09:00:58.446Z,4.56
2022-08-10T09:01:58.552Z,4.34
2022-08-10T09:02:58.484Z,3.98
2022-08-10T09:03:58.480Z,5.22
2022-08-10T09:04:58.475Z,4.30
2022-08-10T09:06:00.200Z,4.33
2022-08-10T09:06:58.490Z,4.24
2022-08-10T09:08:01.449Z,4.41
2022-08-10T09:08:58.487Z,4.03
2022-08-10T09:09:58.484Z,4.09
2022-08-10T09:10:58.476Z,5.33
2022-08-10T09:11:58.488Z,5.43
2022-08-10T09:12:58.499Z,4.93
2022-08-10T09:13:58.500Z,5.32
2022-08-10T09:14:58.510Z,4.54
2022-08-10T09:16:00.759Z,4.79
2022-08-10T09:16:58.509Z,4.10
2022-08-10T09:17:58.513Z,5.25
2022-08-10T09:18:58.531Z,5.06
2022-08-10T09:19:58.527Z,4.97
2022-08-10T09:20:58.509Z,4.11
2022-08-10T09:22:17.983Z,4.91
2022-08-10T09:24:04.787Z,4.40
2022-08-10T09:24:58.527Z,4.65
2022-08-10T09:25:58.520Z,5.01
2022-08-10T09:26:58.547Z,3.91
2022-08-10T09:27:58.532Z,4.19
2022-08-10T09:29:11.609Z,4.07
2022-08-10T09:29:58.552Z,4.33
2022-08-10T09:31:20.828Z,4.31
2022-08-10T09:36:14.297Z,3.79
2022-08-10T09:36:16.909Z,4.24
2022-08-10T09:36:21.526Z,4.36
2022-08-10T09:36:22.612Z,4.51
2022-08-10T09:36:23.866Z,4.00
2022-08-10T09:37:01.521Z,4.14
2022-08-10T09:38:02.483Z,4.55
2022-08-10T09:38:58.594Z,4.65
2022-08-10T09:40:12.172Z,4.42
2022-08-10T09:41:02.956Z,4.42
2022-08-10T09:41:58.574Z,4.37
2022-08-10T09:43:23.574Z,4.34
2022-08-10T09:43:58.590Z,4.30
2022-08-10T09:44:58.840Z,4.82
2022-08-10T09:45:58.579Z,4.32
2022-08-10T09:46:58.576Z,4.08
2022-08-10T09:48:02.322Z,4.36
2022-08-10T09:48:58.594Z,4.28
2022-08-10T09:50:03.717Z,3.56
2022-08-10T09:51:34.955Z,4.12
2022-08-10T09:51:58.591Z,3.80
2022-08-10T09:52:59.311Z,4.48
2022-08-10T09:53:58.618Z,4.42
2022-08-10T09:54:58.610Z,4.27
2022-08-10T09:56:18.579Z,4.20
2022-08-10T09:57:17.854Z,4.50
2022-08-10T09:57:58.832Z,4.75
2022-08-10T09:59:29.126Z,4.14
2022-08-10T10:00:01.262Z,4.63
2022-08-10T10:00:58.624Z,4.51
2022-08-10T10:02:04.169Z,4.52
2022-08-10T10:02:58.728Z,4.96
2022-08-10T10:03:58.620Z,4.12
2022-08-10T10:04:58.637Z,4.28
2022-08-10T10:06:58.646Z,11.02
2022-08-10T10:07:58.640Z,24.36
2022-08-10T10:09:10.213Z,20.51
2022-08-10T10:09:58.646Z,26.40
2022-08-10T10:10:58.640Z,24.05
2022-08-10T10:11:58.669Z,5.73
2022-08-10T10:12:58.651Z,6.98
2022-08-10T10:14:04.596Z,5.53
2022-08-10T10:14:58.654Z,10.76
2022-08-10T10:15:58.667Z,4.94
2022-08-10T10:16:58.679Z,5.02
2022-08-10T10:17:58.676Z,5.78
2022-08-10T10:18:58.664Z,3.96
2022-08-10T10:19:58.687Z,4.41
2022-08-10T10:20:58.685Z,4.29
2022-08-10T10:21:58.685Z,4.12
2022-08-10T10:22:58.723Z,4.35
2022-08-10T10:24:58.766Z,4.02
2022-08-10T10:26:03.584Z,4.14
2022-08-10T10:26:58.711Z,4.44
2022-08-10T10:27:58.706Z,4.40
2022-08-10T10:29:24.755Z,4.23
2022-08-10T10:29:59.471Z,4.61
2022-08-10T10:30:58.690Z,4.41
2022-08-10T10:31:58.715Z,4.19
2022-08-10T10:32:59.473Z,4.36
2022-08-10T10:33:58.724Z,4.47
2022-08-10T10:34:58.718Z,4.66
2022-08-10T10:35:58.714Z,3.69
2022-08-10T10:36:58.729Z,4.16
2022-08-10T10:38:02.200Z,4.99
2022-08-10T10:38:58.734Z,4.54
2022-08-10T10:40:58.760Z,4.36
2022-08-10T10:42:04.272Z,4.72
2022-08-10T10:43:58.762Z,4.13
2022-08-10T10:44:58.734Z,4.97
2022-08-10T10:45:58.758Z,4.40
2022-08-10T10:46:58.762Z,4.44
2022-08-10T10:47:58.749Z,4.89
2022-08-10T10:48:58.756Z,4.26
2022-08-10T10:49:58.753Z,4.96
2022-08-10T10:51:03.318Z,4.52
2022-08-10T10:52:01.906Z,3.92
2022-08-10T10:52:58.789Z,4.07
2022-08-10T10:53:58.787Z,4.03
2022-08-10T10:54:58.761Z,4.26
2022-08-10T10:56:14.491Z,4.02
2022-08-10T10:56:58.770Z,4.65
2022-08-10T10:58:00.936Z,4.11
2022-08-10T10:58:58.792Z,3.88
2022-08-10T10:59:58.760Z,4.36
2022-08-10T11:00:58.841Z,4.42
2022-08-10T11:01:58.777Z,3.87
2022-08-10T11:02:58.792Z,4.40
2022-08-10T11:03:58.806Z,4.18
2022-08-10T11:04:58.800Z,4.53
2022-08-10T11:05:58.798Z,4.61
2022-08-10T11:06:58.805Z,4.76
2022-08-10T11:08:58.810Z,4.62
2022-08-10T11:10:09.006Z,4.46
2022-08-10T11:10:58.810Z,5.66
2022-08-10T11:12:01.856Z,4.50
2022-08-10T11:13:00.061Z,4.60
2022-08-10T11:14:25.410Z,3.99
2022-08-10T11:14:58.818Z,4.27
2022-08-10T11:15:58.816Z,4.56
2022-08-10T11:17:00.255Z,4.39
2022-08-10T11:17:58.830Z,4.27
2022-08-10T11:18:58.828Z,4.02
2022-08-10T11:20:01.327Z,4.20
2022-08-10T11:21:58.836Z,4.12
2022-08-10T11:22:58.840Z,4.17
2022-08-10T11:24:47.862Z,4.06
2022-08-10T11:24:58.835Z,3.79
2022-08-10T11:25:58.848Z,4.37
2022-08-10T11:26:58.874Z,4.29
2022-08-10T11:28:02.114Z,4.68
2022-08-10T11:28:58.880Z,4.45
2022-08-10T11:29:58.865Z,4.45
2022-08-10T11:31:58.898Z,3.51
2022-08-10T11:32:58.881Z,3.81
2022-08-10T11:34:48.787Z,4.48
2022-08-10T11:35:10.533Z,4.53
2022-08-10T11:35:58.883Z,4.90
2022-08-10T11:36:58.882Z,4.00
2022-08-10T11:38:31.743Z,3.95
2022-08-10T11:39:13.990Z,3.37
2022-08-10T11:39:58.928Z,4.20
2022-08-10T11:40:58.883Z,3.79
2022-08-10T11:42:09.928Z,4.25
2022-08-10T11:42:58.882Z,3.84
2022-08-10T11:43:58.897Z,3.74
2022-08-10T11:44:58.888Z,3.54
2022-08-10T11:46:07.414Z,4.04
2022-08-10T11:46:58.903Z,3.59
2022-08-10T11:47:58.898Z,4.40
2022-08-10T11:49:02.252Z,3.91
2022-08-10T11:49:58.900Z,3.72
2022-08-10T11:50:58.908Z,3.55
2022-08-10T11:51:58.926Z,3.18
2022-08-10T11:52:58.952Z,4.54
2022-08-10T11:53:58.896Z,4.18
2022-08-10T11:54:58.926Z,3.54
2022-08-10T11:55:58.978Z,4.72
2022-08-10T11:57:02.389Z,3.48
2022-08-10T11:57:58.923Z,4.41
2022-08-10T11:58:58.915Z,3.93
2022-08-10T11:59:59.247Z,3.70
2022-08-10T12:00:58.935Z,4.47
2022-08-10T12:01:58.958Z,4.24
2022-08-10T12:02:58.987Z,3.93
2022-08-10T12:03:58.951Z,4.04
2022-08-10T12:05:02.283Z,4.13
2022-08-10T12:05:58.958Z,4.18
2022-08-10T12:06:58.934Z,4.63
2022-08-10T12:10:02.981Z,4.29
2022-08-10T12:10:03.729Z,3.79
2022-08-10T12:10:09.138Z,4.38
2022-08-10T12:10:58.983Z,4.06
2022-08-10T12:11:58.970Z,4.65
2022-08-10T12:12:58.967Z,4.46
2022-08-10T12:14:58.986Z,3.92
2022-08-10T12:16:03.292Z,4.22
2022-08-10T12:16:58.987Z,4.39
2022-08-10T12:18:58.978Z,3.70
2022-08-10T12:20:03.465Z,4.48
2022-08-10T12:20:58.979Z,4.04
2022-08-10T12:22:03.564Z,3.67
2022-08-10T12:22:59.003Z,4.32
2022-08-10T12:24:03.229Z,4.10
2022-08-10T12:24:59.029Z,3.83
2022-08-10T12:25:59.026Z,4.22
2022-08-10T12:26:59.009Z,4.48
2022-08-10T12:27:58.992Z,4.10
2022-08-10T12:28:59.056Z,4.07
2022-08-10T12:29:59.010Z,4.16
2022-08-10T12:30:59.019Z,3.97
2022-08-10T12:31:59.045Z,4.22
2022-08-10T12:32:59.037Z,4.12
2022-08-10T12:34:02.479Z,3.94
2022-08-10T12:34:59.030Z,4.18
2022-08-10T12:36:17.282Z,3.78
2022-08-10T12:36:59.017Z,3.98
2022-08-10T12:37:59.031Z,4.64
2022-08-10T12:38:59.019Z,3.79
2022-08-10T12:40:17.783Z,4.06
2022-08-10T12:40:59.044Z,3.96
2022-08-10T12:42:02.473Z,4.27
2022-08-10T12:43:13.341Z,3.98
2022-08-10T12:44:07.218Z,3.90
2022-08-10T12:44:59.067Z,4.48
2022-08-10T12:46:01.933Z,4.18
2022-08-10T12:46:59.093Z,5.38
2022-08-10T12:47:59.052Z,4.56
2022-08-10T12:48:59.073Z,4.06
2022-08-10T12:50:29.391Z,4.37
2022-08-10T12:50:59.090Z,3.59
2022-08-10T12:51:59.086Z,4.36
2022-08-10T12:52:59.075Z,4.00
2022-08-10T12:53:59.082Z,4.10
2022-08-10T12:55:59.108Z,4.12
2022-08-10T12:56:59.071Z,3.92
2022-08-10T12:57:59.100Z,3.41
2022-08-10T12:59:01.414Z,4.37
2022-08-10T12:59:59.095Z,4.05
2022-08-10T13:01:15.619Z,3.43
2022-08-10T13:02:06.219Z,4.18
2022-08-10T13:02:59.123Z,4.15
2022-08-10T13:04:21.983Z,4.00
2022-08-10T13:04:59.169Z,4.12
2022-08-10T13:06:02.813Z,4.31
2022-08-10T13:06:59.147Z,4.17
2022-08-10T13:08:25.770Z,3.48
2022-08-10T13:08:59.124Z,3.69
2022-08-10T13:09:59.116Z,3.70
2022-08-10T13:10:59.139Z,4.28
2022-08-10T13:12:35.974Z,3.96
2022-08-10T13:12:59.176Z,3.66
2022-08-10T13:13:59.128Z,3.62
2022-08-10T13:14:59.121Z,4.16
2022-08-10T13:15:59.167Z,3.49
2022-08-10T13:16:59.158Z,3.49
2022-08-10T13:17:59.133Z,3.50
2022-08-10T13:19:02.613Z,3.77
2022-08-10T13:20:59.155Z,4.36
2022-08-10T13:21:59.167Z,4.02
2022-08-10T13:22:59.155Z,3.65
2022-08-10T13:24:04.041Z,3.71
2022-08-10T13:24:59.169Z,3.22
2022-08-10T13:27:25.270Z,3.41
2022-08-10T13:28:00.521Z,3.73
2022-08-10T13:28:59.391Z,3.99
2022-08-10T13:30:04.019Z,3.78
2022-08-10T13:30:59.191Z,3.85
2022-08-10T13:32:03.626Z,3.73
2022-08-10T13:32:59.182Z,3.81
2022-08-10T13:34:39.913Z,3.68
2022-08-10T13:34:59.185Z,3.44
2022-08-10T13:35:59.203Z,3.15
2022-08-10T13:36:59.208Z,3.28
2022-08-10T13:37:59.201Z,4.10
2022-08-10T13:38:59.204Z,3.49
2022-08-10T13:40:00.748Z,3.77
2022-08-10T13:40:59.196Z,3.46
2022-08-10T13:41:59.221Z,3.40
2022-08-10T13:42:59.216Z,3.46
2022-08-10T13:43:59.200Z,3.40
2022-08-10T13:44:59.228Z,2.93
2022-08-10T13:45:59.210Z,3.49
2022-08-10T13:46:59.212Z,3.24
2022-08-10T13:47:59.220Z,3.46
2022-08-10T13:48:59.236Z,3.27
2022-08-10T13:49:59.222Z,3.50
2022-08-10T13:50:59.227Z,3.42
2022-08-10T13:51:59.237Z,3.43
2022-08-10T13:53:01.270Z,3.58
2022-08-10T13:53:59.232Z,3.73
2022-08-10T13:54:59.226Z,3.59
2022-08-10T13:56:02.797Z,3.33
2022-08-10T13:57:59.249Z,3.24
2022-08-10T13:58:59.243Z,3.16
2022-08-10T14:00:34.473Z,3.13
2022-08-10T14:00:59.351Z,2.84
2022-08-10T14:01:59.277Z,3.23
2022-08-10T14:02:59.290Z,3.15
2022-08-10T14:03:59.267Z,3.33
2022-08-10T14:04:59.517Z,3.18
2022-08-10T14:05:59.257Z,3.31
2022-08-10T14:06:59.276Z,2.96
2022-08-10T14:08:00.989Z,3.18
2022-08-10T14:08:59.282Z,3.06
2022-08-10T14:09:59.301Z,2.98
2022-08-10T14:11:08.569Z,2.95
2022-08-10T14:11:59.298Z,2.69
2022-08-10T14:12:59.283Z,3.16
2022-08-10T14:13:59.296Z,2.87
2022-08-10T14:14:59.286Z,3.66
2022-08-10T14:15:59.337Z,3.28
2022-08-10T14:16:59.301Z,2.81
2022-08-10T14:17:59.281Z,3.23
2022-08-10T14:18:59.314Z,3.26
2022-08-10T14:19:59.580Z,3.18
2022-08-10T14:20:59.303Z,3.75
2022-08-10T14:21:59.325Z,3.08
2022-08-10T14:22:59.322Z,3.10
2022-08-10T14:23:59.326Z,3.34
2022-08-10T14:24:59.308Z,3.77
2022-08-10T14:25:59.339Z,3.38
2022-08-10T14:26:59.332Z,2.93
2022-08-10T14:28:03.167Z,3.06
2022-08-10T14:28:59.338Z,3.18
2022-08-10T14:29:59.329Z,3.03
2022-08-10T14:30:59.327Z,3.33
2022-08-10T14:32:01.663Z,3.09
2022-08-10T14:33:02.990Z,3.12
2022-08-10T14:36:21.466Z,2.88
2022-08-10T14:36:23.228Z,3.05
2022-08-10T14:36:59.348Z,3.25
2022-08-10T14:37:59.363Z,3.77
2022-08-10T14:38:59.375Z,2.74
2022-08-10T14:39:59.394Z,2.55
2022-08-10T14:40:59.354Z,3.04
2022-08-10T14:42:02.943Z,2.91
2022-08-10T14:42:59.378Z,2.50
2022-08-10T14:43:59.367Z,2.72
2022-08-10T14:44:59.383Z,3.06
2022-08-10T14:46:01.466Z,3.08
2022-08-10T14:46:59.396Z,2.87
2022-08-10T14:48:59.383Z,3.27
2022-08-10T14:49:59.376Z,2.92
2022-08-10T14:50:59.388Z,3.03
2022-08-10T14:51:59.390Z,3.51
2022-08-10T14:52:59.392Z,3.30
2022-08-10T14:53:59.405Z,3.18
2022-08-10T14:54:59.395Z,3.05
2022-08-10T14:56:01.948Z,3.22
2022-08-10T14:56:59.421Z,3.20
2022-08-10T14:58:16.636Z,3.06
2022-08-10T14:59:06.743Z,3.09
2022-08-10T15:00:24.494Z,3.18
2022-08-10T15:00:59.524Z,2.91
2022-08-10T15:02:40.953Z,2.98
2022-08-10T15:02:59.512Z,2.87
2022-08-10T15:04:03.042Z,3.11
2022-08-10T15:04:59.428Z,3.04
2022-08-10T15:05:59.471Z,2.96